Seago Piraeus — OXVD2 — position and weather

sailwx.info

Track history (hours):
 
Tides and Currents Weather Stations Pressure Air Temp Water Temp Dewpoint Dewpoint Depression Visibility Wind Speed Wind Dir Waves Ship Positions

Seago Piraeus

Last reported at 2015-Mar-01 00:32 UTC. Time now 2015-Mar-01 00:42 UTC.
Position N 53°55' E 007°47'.

Length 294 m; draft 10.3 m.

Type: Ship (hazmat cat A). MMSI: 219117000.

Date/timePositionNaut miles runAvg speedWind from/ knotsBaromVisibWave heightAir tempDewpointWater temp
2015-Mar-01 00:32N 53°55' E 007°47'0 0.0
2015-Feb-28 23:32N 53°55' E 007°47'0 0.0
2015-Feb-28 22:29N 53°55' E 007°47'0 0.0
2015-Feb-28 21:29N 53°55' E 007°47'0 0.0
2015-Feb-28 20:29N 53°55' E 007°47'0 0.0
2015-Feb-28 19:23N 53°55' E 007°47'0 0.1
2015-Feb-28 18:32N 53°55' E 007°47'0 0.1
2015-Feb-28 17:32N 53°55' E 007°47'0 0.0
2015-Feb-28 16:23N 53°54' E 007°47'0 0.0
2015-Feb-28 15:23N 53°54' E 007°47'0 0.0
2015-Feb-28 14:23N 53°54' E 007°47'0 0.1
2015-Feb-28 13:32N 53°55' E 007°47'0 0.0
2015-Feb-28 12:26N 53°55' E 007°47'0 0.0
2015-Feb-28 11:29N 53°55' E 007°47'0 0.1
2015-Feb-28 10:32N 53°55' E 007°47'0 0.0
2015-Feb-28 09:29N 53°55' E 007°47'0 0.0
2015-Feb-28 08:32N 53°55' E 007°47'0 0.1
2015-Feb-28 07:32N 53°55' E 007°47'0 0.0
2015-Feb-28 06:20N 53°54' E 007°47'0 0.0
2015-Feb-28 05:32N 53°54' E 007°47'0 0.0
2015-Feb-28 04:32N 53°54' E 007°47'0 0.0
2015-Feb-28 03:32N 53°54' E 007°47'0 0.0
2015-Feb-28 02:23N 53°54' E 007°47'0 0.0
2015-Feb-28 01:20N 53°54' E 007°47'0 0.0
2015-Feb-28 00:26N 53°54' E 007°47'0 0.1
2015-Feb-27 23:29N 53°54' E 007°47'0 0.1
2015-Feb-27 22:20N 53°54' E 007°47'0 0.1
2015-Feb-27 21:32N 53°54' E 007°47'0 0.1
2015-Feb-27 20:32N 53°54' E 007°47'0 0.1
2015-Feb-27 19:29N 53°54' E 007°47'0 0.0
2015-Feb-27 18:32N 53°54' E 007°47'0 0.0
2015-Feb-27 17:32N 53°54' E 007°47'0 0.0
2015-Feb-27 16:32N 53°54' E 007°47'0 0.0
2015-Feb-27 15:32N 53°54' E 007°47'0 0.0
2015-Feb-27 14:29N 53°54' E 007°47'0 0.5
2015-Feb-27 13:33N 53°54' E 007°47'9 9.4
2015-Feb-27 12:34N 53°54' E 007°31'1312.8
2015-Feb-27 11:33N 53°51' E 007°10'1312.3
2015-Feb-27 10:32N 53°48' E 006°49'1612.0
2015-Feb-27 09:11N 53°44' E 006°23'811.9
2015-Feb-27 08:32N 53°42' E 006°10'1211.9
2015-Feb-27 07:32N 53°38' E 005°51'1211.8
2015-Feb-27 06:33N 53°35' E 005°33'1211.7
2015-Feb-27 05:33N 53°31' E 005°14'1212.2
2015-Feb-27 04:33N 53°26' E 004°55'1111.1
2015-Feb-27 03:33N 53°20' E 004°41'1211.6
2015-Feb-27 02:33N 53°09' E 004°32'1211.7
2015-Feb-27 01:33N 52°59' E 004°22'1211.9
2015-Feb-27 00:33N 52°48' E 004°13'1212.4
2015-Feb-26 23:33N 52°42' E 003°56'1312.7
2015-Feb-26 22:33N 52°34' E 003°39'1312.9
2015-Feb-26 21:32N 52°26' E 003°23'59 9.9
2015-Feb-26 15:33N 51°52' E 002°04'1111.1
2015-Feb-26 14:33N 51°49' E 001°46'1010.2
2015-Feb-26 13:34N 51°55' E 001°33'10 9.7
2015-Feb-26 12:33N 51°57' E 001°18'0 0.2
2015-Feb-26 11:33N 51°58' E 001°18'0 0.0
2015-Feb-26 10:33N 51°58' E 001°18'0 0.0
2015-Feb-26 09:33N 51°58' E 001°18'0 0.0
2015-Feb-26 08:33N 51°58' E 001°18'0 0.0
2015-Feb-26 07:33N 51°58' E 001°18'0 0.0
2015-Feb-26 06:33N 51°58' E 001°18'0 0.0
2015-Feb-26 05:33N 51°58' E 001°18'0 0.0
2015-Feb-26 04:30N 51°58' E 001°18'0 0.0
2015-Feb-26 03:33N 51°58' E 001°18'0 0.0
2015-Feb-26 02:33N 51°58' E 001°18'0 0.0
2015-Feb-26 01:33N 51°58' E 001°18'0 0.0
2015-Feb-26 00:30N 51°58' E 001°18'0 0.0
2015-Feb-25 23:33N 51°58' E 001°18'0 0.0
2015-Feb-25 22:33N 51°58' E 001°18'0 0.0
2015-Feb-25 21:33N 51°58' E 001°18'0 0.0
2015-Feb-25 20:33N 51°58' E 001°18'0 0.0
2015-Feb-25 19:33N 51°58' E 001°18'0 0.0
2015-Feb-25 18:33N 51°58' E 001°18'0 0.0
2015-Feb-25 17:33N 51°58' E 001°18'0 0.0
2015-Feb-25 16:34N 51°58' E 001°18'4 3.6
2015-Feb-25 15:33N 51°56' E 001°23'1111.2
2015-Feb-25 14:33N 51°51' E 001°39'2 2.1
2015-Feb-25 13:31N 51°53' E 001°41'0 0.0
2015-Feb-25 12:31N 51°53' E 001°41'0 0.1
2015-Feb-25 11:25N 51°53' E 001°41'0 0.2
2015-Feb-25 10:31N 51°54' E 001°41'0 0.1
2015-Feb-25 09:31N 51°54' E 001°41'0 0.0
2015-Feb-25 08:33N 51°54' E 001°41'0 0.0
2015-Feb-25 07:33N 51°54' E 001°41'0 0.0
2015-Feb-25 06:33N 51°54' E 001°41'0 0.0
2015-Feb-25 05:33N 51°54' E 001°41'0 0.0
2015-Feb-25 04:33N 51°54' E 001°41'0 0.2
2015-Feb-25 03:33N 51°53' E 001°41'0 0.1
2015-Feb-25 02:33N 51°53' E 001°41'0 0.0
2015-Feb-25 01:33N 51°53' E 001°41'0 0.0
2015-Feb-25 00:33N 51°53' E 001°41'0 0.0
2015-Feb-24 23:33N 51°53' E 001°41'0 0.2
2015-Feb-24 22:33N 51°54' E 001°41'0 0.1
2015-Feb-24 21:33N 51°54' E 001°41'0 0.1
2015-Feb-24 20:33N 51°54' E 001°41'0 0.0
2015-Feb-24 19:33N 51°54' E 001°41'0 0.0
2015-Feb-24 18:33N 51°54' E 001°41'5 5.5
2015-Feb-24 17:33N 51°51' E 001°49'1414.1
2015-Feb-24 16:33N 51°37' E 001°49'1414.4
2015-Feb-24 15:34N 51°23' E 001°43'1414.1
2015-Feb-24 14:33N 51°10' E 001°37'1212.0
2015-Feb-24 13:34N 50°59' E 001°30'1313.0
2015-Feb-24 12:33N 50°46' E 001°22'1221.8
2015-Feb-24 12:00N 50°36' E 001°12'10611.8 260 / 161007.6 5.4 1.010.0 5.6 8.0
2015-Feb-24 03:00N 50°00' W 001°24'16713.4 270 / 35999.110.8 4.511.0 1.5 9.0
2015-Feb-23 14:33N 48°55' W 005°21'36 9.0
2015-Feb-23 10:34N 48°26' W 005°53'8811.6
2015-Feb-23 03:00N 47°06' W 006°48'14311.9 250 / 281002.8 5.4 3.512.0 7.911.0
2015-Feb-22 15:00N 45°00' W 008°24'13811.5 270 / 241012.9 5.4 3.012.011.012.0
2015-Feb-22 03:00N 42°54' W 009°42'3612.0 320 / 141019.610.8 3.012.0 5.612.0
2015-Feb-22 00:00N 42°18' W 009°42'18310.8 340 / 191019.610.8 1.513.0 6.812.0
2015-Feb-21 07:10N 39°16' W 009°50'711.2
2015-Feb-21 06:33N 39°09' W 009°50'1111.4
2015-Feb-21 05:33N 38°57' W 009°50'1111.5
2015-Feb-21 04:33N 38°46' W 009°50'1111.3
2015-Feb-21 03:33N 38°35' W 009°48'1111.2
2015-Feb-21 02:33N 38°24' W 009°44'1211.6
2015-Feb-21 01:33N 38°13' W 009°41'1211.9
2015-Feb-21 00:33N 38°01' W 009°38'1211.9
2015-Feb-20 23:33N 37°49' W 009°35'1212.0
2015-Feb-20 22:33N 37°38' W 009°31'1211.9
2015-Feb-20 21:31N 37°26' W 009°27'1211.9
2015-Feb-20 20:31N 37°14' W 009°24'1111.4
2015-Feb-20 19:33N 37°03' W 009°21'1111.2
2015-Feb-20 18:33N 36°53' W 009°17'1210.7
2015-Feb-20 17:25N 36°45' W 009°06'1011.1
2015-Feb-20 16:33N 36°41' W 008°54'1111.2
2015-Feb-20 15:33N 36°37' W 008°41'4713.2
2015-Feb-20 12:00N 36°18' W 007°48'11512.2 020 / 61022.610.8 0.517.513.115.0
2015-Feb-20 02:32N 36°00' W 005°27'1413.8
2015-Feb-20 01:33N 36°03' W 005°11'22513.7
2015-Feb-19 09:08N 37°24' W 000°49'1414.9
2015-Feb-19 08:10N 37°33' W 000°35'914.6
2015-Feb-19 07:33N 37°40' W 000°28'1414.1
2015-Feb-19 06:32N 37°52' W 000°18'  
Track history (hours):
 
Tides and Currents Weather Stations Pressure Air Temp Water Temp Dewpoint Dewpoint Depression Visibility Wind Speed Wind Dir Waves Ship Positions

Seago Piraeus

Last reported at 2015-Mar-01 00:32 UTC. Time now 2015-Mar-01 00:42 UTC.
Position N 53°55' E 007°47'.

Length 294 m; draft 10.3 m.

Type: Ship (hazmat cat A). MMSI: 219117000.

Date/timePositionNaut miles runAvg speedWind from/ knotsBaromVisibWave heightAir tempDewpointWater temp
2015-Mar-01 00:32N 53°55' E 007°47'0 0.0
2015-Feb-28 23:32N 53°55' E 007°47'0 0.0
2015-Feb-28 22:29N 53°55' E 007°47'0 0.0
2015-Feb-28 21:29N 53°55' E 007°47'0 0.0
2015-Feb-28 20:29N 53°55' E 007°47'0 0.0
2015-Feb-28 19:23N 53°55' E 007°47'0 0.1
2015-Feb-28 18:32N 53°55' E 007°47'0 0.1
2015-Feb-28 17:32N 53°55' E 007°47'0 0.0
2015-Feb-28 16:23N 53°54' E 007°47'0 0.0
2015-Feb-28 15:23N 53°54' E 007°47'0 0.0
2015-Feb-28 14:23N 53°54' E 007°47'0 0.1
2015-Feb-28 13:32N 53°55' E 007°47'0 0.0
2015-Feb-28 12:26N 53°55' E 007°47'0 0.0
2015-Feb-28 11:29N 53°55' E 007°47'0 0.1
2015-Feb-28 10:32N 53°55' E 007°47'0 0.0
2015-Feb-28 09:29N 53°55' E 007°47'0 0.0
2015-Feb-28 08:32N 53°55' E 007°47'0 0.1
2015-Feb-28 07:32N 53°55' E 007°47'0 0.0
2015-Feb-28 06:20N 53°54' E 007°47'0 0.0
2015-Feb-28 05:32N 53°54' E 007°47'0 0.0
2015-Feb-28 04:32N 53°54' E 007°47'0 0.0
2015-Feb-28 03:32N 53°54' E 007°47'0 0.0
2015-Feb-28 02:23N 53°54' E 007°47'0 0.0
2015-Feb-28 01:20N 53°54' E 007°47'0 0.0
2015-Feb-28 00:26N 53°54' E 007°47'0 0.1
2015-Feb-27 23:29N 53°54' E 007°47'0 0.1
2015-Feb-27 22:20N 53°54' E 007°47'0 0.1
2015-Feb-27 21:32N 53°54' E 007°47'0 0.1
2015-Feb-27 20:32N 53°54' E 007°47'0 0.1
2015-Feb-27 19:29N 53°54' E 007°47'0 0.0
2015-Feb-27 18:32N 53°54' E 007°47'0 0.0
2015-Feb-27 17:32N 53°54' E 007°47'0 0.0
2015-Feb-27 16:32N 53°54' E 007°47'0 0.0
2015-Feb-27 15:32N 53°54' E 007°47'0 0.0
2015-Feb-27 14:29N 53°54' E 007°47'0 0.5
2015-Feb-27 13:33N 53°54' E 007°47'9 9.4
2015-Feb-27 12:34N 53°54' E 007°31'1312.8
2015-Feb-27 11:33N 53°51' E 007°10'1312.3
2015-Feb-27 10:32N 53°48' E 006°49'1612.0
2015-Feb-27 09:11N 53°44' E 006°23'811.9
2015-Feb-27 08:32N 53°42' E 006°10'1211.9
2015-Feb-27 07:32N 53°38' E 005°51'1211.8
2015-Feb-27 06:33N 53°35' E 005°33'1211.7
2015-Feb-27 05:33N 53°31' E 005°14'1212.2
2015-Feb-27 04:33N 53°26' E 004°55'1111.1
2015-Feb-27 03:33N 53°20' E 004°41'1211.6
2015-Feb-27 02:33N 53°09' E 004°32'1211.7
2015-Feb-27 01:33N 52°59' E 004°22'1211.9
2015-Feb-27 00:33N 52°48' E 004°13'1212.4
2015-Feb-26 23:33N 52°42' E 003°56'1312.7
2015-Feb-26 22:33N 52°34' E 003°39'1312.9
2015-Feb-26 21:32N 52°26' E 003°23'59 9.9
2015-Feb-26 15:33N 51°52' E 002°04'1111.1
2015-Feb-26 14:33N 51°49' E 001°46'1010.2
2015-Feb-26 13:34N 51°55' E 001°33'10 9.7
2015-Feb-26 12:33N 51°57' E 001°18'0 0.2
2015-Feb-26 11:33N 51°58' E 001°18'0 0.0
2015-Feb-26 10:33N 51°58' E 001°18'0 0.0
2015-Feb-26 09:33N 51°58' E 001°18'0 0.0
2015-Feb-26 08:33N 51°58' E 001°18'0 0.0
2015-Feb-26 07:33N 51°58' E 001°18'0 0.0
2015-Feb-26 06:33N 51°58' E 001°18'0 0.0
2015-Feb-26 05:33N 51°58' E 001°18'0 0.0
2015-Feb-26 04:30N 51°58' E 001°18'0 0.0
2015-Feb-26 03:33N 51°58' E 001°18'0 0.0
2015-Feb-26 02:33N 51°58' E 001°18'0 0.0
2015-Feb-26 01:33N 51°58' E 001°18'0 0.0
2015-Feb-26 00:30N 51°58' E 001°18'0 0.0
2015-Feb-25 23:33N 51°58' E 001°18'0 0.0
2015-Feb-25 22:33N 51°58' E 001°18'0 0.0
2015-Feb-25 21:33N 51°58' E 001°18'0 0.0
2015-Feb-25 20:33N 51°58' E 001°18'0 0.0
2015-Feb-25 19:33N 51°58' E 001°18'0 0.0
2015-Feb-25 18:33N 51°58' E 001°18'0 0.0
2015-Feb-25 17:33N 51°58' E 001°18'0 0.0
2015-Feb-25 16:34N 51°58' E 001°18'4 3.6
2015-Feb-25 15:33N 51°56' E 001°23'1111.2
2015-Feb-25 14:33N 51°51' E 001°39'2 2.1
2015-Feb-25 13:31N 51°53' E 001°41'0 0.0
2015-Feb-25 12:31N 51°53' E 001°41'0 0.1
2015-Feb-25 11:25N 51°53' E 001°41'0 0.2
2015-Feb-25 10:31N 51°54' E 001°41'0 0.1
2015-Feb-25 09:31N 51°54' E 001°41'0 0.0
2015-Feb-25 08:33N 51°54' E 001°41'0 0.0
2015-Feb-25 07:33N 51°54' E 001°41'0 0.0
2015-Feb-25 06:33N 51°54' E 001°41'0 0.0
2015-Feb-25 05:33N 51°54' E 001°41'0 0.0
2015-Feb-25 04:33N 51°54' E 001°41'0 0.2
2015-Feb-25 03:33N 51°53' E 001°41'0 0.1
2015-Feb-25 02:33N 51°53' E 001°41'0 0.0
2015-Feb-25 01:33N 51°53' E 001°41'0 0.0
2015-Feb-25 00:33N 51°53' E 001°41'0 0.0
2015-Feb-24 23:33N 51°53' E 001°41'0 0.2
2015-Feb-24 22:33N 51°54' E 001°41'0 0.1
2015-Feb-24 21:33N 51°54' E 001°41'0 0.1
2015-Feb-24 20:33N 51°54' E 001°41'0 0.0
2015-Feb-24 19:33N 51°54' E 001°41'0 0.0
2015-Feb-24 18:33N 51°54' E 001°41'5 5.5
2015-Feb-24 17:33N 51°51' E 001°49'1414.1
2015-Feb-24 16:33N 51°37' E 001°49'1414.4
2015-Feb-24 15:34N 51°23' E 001°43'1414.1
2015-Feb-24 14:33N 51°10' E 001°37'1212.0
2015-Feb-24 13:34N 50°59' E 001°30'1313.0
2015-Feb-24 12:33N 50°46' E 001°22'1221.8
2015-Feb-24 12:00N 50°36' E 001°12'10611.8 260 / 161007.6 5.4 1.010.0 5.6 8.0
2015-Feb-24 03:00N 50°00' W 001°24'16713.4 270 / 35999.110.8 4.511.0 1.5 9.0
2015-Feb-23 14:33N 48°55' W 005°21'36 9.0
2015-Feb-23 10:34N 48°26' W 005°53'8811.6
2015-Feb-23 03:00N 47°06' W 006°48'14311.9 250 / 281002.8 5.4 3.512.0 7.911.0
2015-Feb-22 15:00N 45°00' W 008°24'13811.5 270 / 241012.9 5.4 3.012.011.012.0
2015-Feb-22 03:00N 42°54' W 009°42'3612.0 320 / 141019.610.8 3.012.0 5.612.0
2015-Feb-22 00:00N 42°18' W 009°42'18310.8 340 / 191019.610.8 1.513.0 6.812.0
2015-Feb-21 07:10N 39°16' W 009°50'711.2
2015-Feb-21 06:33N 39°09' W 009°50'1111.4
2015-Feb-21 05:33N 38°57' W 009°50'1111.5
2015-Feb-21 04:33N 38°46' W 009°50'1111.3
2015-Feb-21 03:33N 38°35' W 009°48'1111.2
2015-Feb-21 02:33N 38°24' W 009°44'1211.6
2015-Feb-21 01:33N 38°13' W 009°41'1211.9
2015-Feb-21 00:33N 38°01' W 009°38'1211.9
2015-Feb-20 23:33N 37°49' W 009°35'1212.0
2015-Feb-20 22:33N 37°38' W 009°31'1211.9
2015-Feb-20 21:31N 37°26' W 009°27'1211.9
2015-Feb-20 20:31N 37°14' W 009°24'1111.4
2015-Feb-20 19:33N 37°03' W 009°21'1111.2
2015-Feb-20 18:33N 36°53' W 009°17'1210.7
2015-Feb-20 17:25N 36°45' W 009°06'1011.1
2015-Feb-20 16:33N 36°41' W 008°54'1111.2
2015-Feb-20 15:33N 36°37' W 008°41'4713.2
2015-Feb-20 12:00N 36°18' W 007°48'11512.2 020 / 61022.610.8 0.517.513.115.0
2015-Feb-20 02:32N 36°00' W 005°27'1413.8
2015-Feb-20 01:33N 36°03' W 005°11'22513.7
2015-Feb-19 09:08N 37°24' W 000°49'1414.9
2015-Feb-19 08:10N 37°33' W 000°35'914.6
2015-Feb-19 07:33N 37°40' W 000°28'1414.1
2015-Feb-19 06:32N 37°52' W 000°18'  

Dump ship's entire track history